Time;durP1;ratioP1;P1;durP2;ratioP2;P2;SDS_P1;SDS_P2;PMS_P1;PMS_P2;Temp;Humidity;BMP_temperature;BMP_pressure;BME280_temperature;BME280_humidity;BME280_pressure;Samples;Min_cycle;Max_cycle;Signal;HPM_P1;HPM_P2
2022/02/23 00:02:08;;;;;;;7.20;4.70;;;8.90;96.70;;;;;;5114722;27;20063;-74
2022/02/23 00:04:39;;;;;;;8.00;5.35;;;8.80;96.70;;;;;;5109317;27;20146;-74
2022/02/23 00:07:07;;;;;;;8.75;4.97;;;8.70;96.70;;;;;;5115088;27;20053;-75
2022/02/23 00:09:35;;;;;;;9.07;5.53;;;8.70;96.70;;;;;;5125935;27;20100;-75
2022/02/23 00:12:05;;;;;;;8.88;5.50;;;8.60;96.70;;;;;;5117446;27;20441;-74
2022/02/23 00:14:34;;;;;;;8.23;4.75;;;8.50;96.70;;;;;;5115218;27;20527;-74
2022/02/23 00:17:04;;;;;;;8.32;4.25;;;8.40;96.70;;;;;;5118721;27;20132;-74
2022/02/23 00:19:32;;;;;;;7.30;4.32;;;8.50;96.70;;;;;;5119354;27;20067;-75
2022/02/23 00:22:01;;;;;;;8.68;4.90;;;8.60;96.70;;;;;;5116820;27;20092;-75
2022/02/23 00:24:29;;;;;;;6.70;4.35;;;8.60;96.70;;;;;;5117647;28;20046;-76
2022/02/23 00:26:57;;;;;;;7.50;4.47;;;8.60;96.70;;;;;;5126314;27;20049;-75
2022/02/23 00:29:26;;;;;;;8.38;4.25;;;8.60;96.70;;;;;;5115256;27;20043;-75
2022/02/23 00:31:54;;;;;;;8.50;4.93;;;8.50;96.70;;;;;;5118896;27;20106;-76
2022/02/23 00:34:24;;;;;;;7.47;4.60;;;8.50;96.70;;;;;;5120401;27;20142;-75
2022/02/23 00:36:54;;;;;;;8.48;4.15;;;8.50;96.70;;;;;;5101610;28;20044;-75
2022/02/23 00:39:27;;;;;;;6.55;3.92;;;8.60;96.70;;;;;;5117278;27;20046;-75
2022/02/23 00:41:55;;;;;;;13.57;4.97;;;8.50;96.70;;;;;;5112957;27;20035;-75
2022/02/23 00:44:23;;;;;;;7.13;4.03;;;8.60;96.70;;;;;;5117094;27;20126;-76
2022/02/23 00:46:52;;;;;;;7.28;4.03;;;8.60;96.70;;;;;;5117731;27;20035;-75
2022/02/23 00:49:20;;;;;;;6.65;4.22;;;8.50;96.70;;;;;;5115978;27;20043;-75
2022/02/23 00:51:52;;;;;;;7.32;4.22;;;8.30;96.70;;;;;;5119422;27;20039;-75
2022/02/23 00:54:21;;;;;;;4.82;3.90;;;8.20;96.70;;;;;;5122461;27;20093;-76
2022/02/23 00:56:49;;;;;;;9.18;4.70;;;8.30;96.70;;;;;;5124531;27;20047;-75
2022/02/23 00:59:17;;;;;;;5.95;3.72;;;8.30;96.70;;;;;;5123680;27;20054;-75
2022/02/23 01:01:46;;;;;;;8.00;4.22;;;8.40;96.70;;;;;;5122611;27;20135;-75
2022/02/23 01:04:14;;;;;;;7.00;3.90;;;8.40;96.70;;;;;;5117312;27;20292;-75
2022/02/23 01:06:42;;;;;;;7.68;3.47;;;8.20;96.70;;;;;;5118886;27;20050;-75
2022/02/23 01:09:12;;;;;;;7.03;4.03;;;8.30;96.70;;;;;;5122968;27;20043;-75
2022/02/23 01:11:41;;;;;;;5.18;3.53;;;8.30;96.70;;;;;;5117924;27;20041;-75
2022/02/23 01:14:10;;;;;;;8.25;3.83;;;8.40;96.70;;;;;;5121363;27;20507;-75
2022/02/23 01:16:38;;;;;;;6.13;3.38;;;8.20;96.70;;;;;;5125228;27;20043;-75
2022/02/23 01:19:06;;;;;;;5.55;3.35;;;8.20;96.70;;;;;;5124778;27;20484;-75
2022/02/23 01:21:35;;;;;;;6.38;3.17;;;8.20;96.70;;;;;;5108392;27;20347;-75
2022/02/23 01:24:04;;;;;;;6.97;3.50;;;8.20;96.70;;;;;;5125466;27;20066;-75
2022/02/23 01:26:36;;;;;;;5.63;3.17;;;8.20;96.70;;;;;;5125049;27;20099;-76
2022/02/23 01:29:04;;;;;;;6.53;2.97;;;8.20;96.70;;;;;;5117545;27;20042;-75
2022/02/23 01:31:32;;;;;;;6.57;3.50;;;8.20;96.70;;;;;;5106178;27;20134;-75
2022/02/23 01:34:02;;;;;;;4.13;3.20;;;8.20;96.70;;;;;;5122858;27;20389;-75
2022/02/23 01:36:30;;;;;;;8.00;4.15;;;8.10;96.70;;;;;;5118586;27;20043;-75
2022/02/23 01:38:58;;;;;;;6.20;3.55;;;8.00;96.70;;;;;;5118026;27;21231;-76
2022/02/23 01:41:27;;;;;;;4.22;2.65;;;7.80;96.70;;;;;;5124647;27;20088;-76
2022/02/23 01:43:57;;;;;;;4.63;2.70;;;7.90;96.70;;;;;;5121039;27;20043;-77
2022/02/23 01:46:27;;;;;;;6.88;3.72;;;8.00;96.70;;;;;;5122314;27;20145;-77
2022/02/23 01:48:55;;;;;;;4.75;3.08;;;7.80;96.70;;;;;;5106827;27;20039;-76
2022/02/23 01:51:23;;;;;;;5.47;3.28;;;7.70;96.70;;;;;;5115149;27;20051;-76
2022/02/23 01:53:51;;;;;;;7.82;3.72;;;7.50;96.70;;;;;;5121851;27;20433;-76
2022/02/23 01:56:20;;;;;;;4.30;3.03;;;7.50;96.70;;;;;;5127440;27;20541;-76
2022/02/23 01:58:48;;;;;;;6.68;3.70;;;7.50;96.70;;;;;;5123105;27;20848;-76
2022/02/23 02:01:18;;;;;;;5.43;3.30;;;7.50;96.70;;;;;;5109353;27;20579;-76
2022/02/23 02:03:47;;;;;;;6.82;3.22;;;7.60;96.70;;;;;;5121333;27;20134;-76
2022/02/23 02:06:18;;;;;;;5.97;3.47;;;7.50;96.70;;;;;;5120234;27;20057;-76
2022/02/23 02:08:46;;;;;;;4.68;3.00;;;7.60;96.70;;;;;;5123339;27;20092;-77
2022/02/23 02:11:18;;;;;;;7.80;3.05;;;7.50;96.70;;;;;;5123058;27;20104;-76
2022/02/23 02:13:51;;;;;;;6.38;2.97;;;7.30;96.70;;;;;;5118869;27;20456;-76
2022/02/23 02:16:20;;;;;;;6.38;3.13;;;7.20;96.70;;;;;;5099712;27;20039;-76
2022/02/23 02:18:49;;;;;;;6.20;3.47;;;7.20;96.70;;;;;;5123330;27;20047;-76
2022/02/23 02:21:17;;;;;;;7.68;3.60;;;7.10;96.70;;;;;;5121052;27;20035;-76
2022/02/23 02:23:46;;;;;;;5.72;3.03;;;7.20;96.70;;;;;;5123447;27;20039;-76
2022/02/23 02:26:16;;;;;;;6.25;2.75;;;7.20;96.70;;;;;;5120832;27;20338;-76
2022/02/23 02:28:44;;;;;;;7.35;3.13;;;7.30;96.70;;;;;;5124686;27;20039;-77
2022/02/23 02:31:12;;;;;;;6.95;2.92;;;7.40;96.70;;;;;;5101946;27;20047;-76
2022/02/23 02:33:40;;;;;;;5.40;3.17;;;7.30;96.70;;;;;;5123257;27;20046;-76
2022/02/23 02:36:09;;;;;;;6.82;2.80;;;7.20;96.70;;;;;;5130619;27;20043;-76
2022/02/23 02:38:37;;;;;;;6.50;3.30;;;7.20;96.70;;;;;;5122247;27;20039;-76
2022/02/23 02:41:06;;;;;;;5.05;3.13;;;7.20;96.70;;;;;;5123400;27;20053;-76
2022/02/23 02:43:35;;;;;;;6.85;3.05;;;7.30;96.70;;;;;;5118997;27;20118;-76
2022/02/23 02:46:03;;;;;;;8.80;2.72;;;7.30;96.70;;;;;;5118768;27;20402;-76
2022/02/23 02:48:31;;;;;;;3.63;2.35;;;7.30;96.70;;;;;;5118856;27;20122;-76
2022/02/23 02:50:59;;;;;;;3.67;2.42;;;7.30;96.70;;;;;;5118206;27;20453;-76
2022/02/23 02:53:27;;;;;;;5.13;2.47;;;7.30;96.70;;;;;;5117520;27;20118;-76
2022/02/23 02:55:55;;;;;;;6.13;2.78;;;7.20;96.70;;;;;;5122471;27;20032;-76
2022/02/23 02:58:26;;;;;;;4.43;2.58;;;7.10;96.70;;;;;;5133542;27;20043;-77
2022/02/23 03:00:54;;;;;;;5.18;3.00;;;6.90;96.70;;;;;;5120202;27;20039;-76
2022/02/23 03:03:22;;;;;;;4.70;2.70;;;6.90;96.70;;;;;;5134354;27;20143;-76
2022/02/23 03:05:51;;;;;;;5.50;2.63;;;7.00;96.70;;;;;;5113710;27;20050;-76
2022/02/23 03:08:19;;;;;;;4.10;2.28;;;7.10;96.70;;;;;;5122146;27;20160;-76
2022/02/23 03:10:47;;;;;;;7.22;3.00;;;7.10;96.70;;;;;;5122503;27;20031;-76
2022/02/23 03:13:15;;;;;;;3.75;2.33;;;7.10;96.70;;;;;;5121213;27;20043;-76
2022/02/23 03:15:46;;;;;;;3.30;2.08;;;7.00;96.70;;;;;;5118268;27;20038;-76
2022/02/23 03:18:14;;;;;;;4.13;2.10;;;7.00;96.70;;;;;;5121357;27;20044;-76
2022/02/23 03:20:42;;;;;;;4.97;2.13;;;7.00;96.70;;;;;;5119160;27;20042;-77
2022/02/23 03:23:10;;;;;;;6.07;2.10;;;7.00;96.70;;;;;;5121645;27;20083;-75
2022/02/23 03:25:38;;;;;;;2.78;1.75;;;7.00;96.70;;;;;;5119644;27;20374;-76
2022/02/23 03:28:07;;;;;;;2.90;1.60;;;6.90;96.70;;;;;;5119844;27;20058;-76
2022/02/23 03:30:35;;;;;;;2.15;1.45;;;6.80;96.70;;;;;;5117621;27;20093;-76
2022/02/23 03:33:05;;;;;;;2.67;1.50;;;6.90;96.70;;;;;;5118050;27;20088;-76
2022/02/23 03:35:34;;;;;;;3.22;1.92;;;6.90;96.70;;;;;;5118420;27;20035;-76
2022/02/23 03:38:03;;;;;;;3.90;1.60;;;6.80;96.70;;;;;;5119904;27;20039;-76
2022/02/23 03:40:32;;;;;;;3.63;1.40;;;6.60;96.70;;;;;;5117679;27;20045;-76
2022/02/23 03:43:01;;;;;;;3.60;1.40;;;6.60;96.70;;;;;;5120159;27;20468;-75
2022/02/23 03:45:30;;;;;;;1.63;1.13;;;6.40;96.70;;;;;;5121908;27;20478;-76
2022/02/23 03:47:58;;;;;;;2.80;1.33;;;6.60;96.70;;;;;;5122025;27;20039;-76
2022/02/23 03:50:28;;;;;;;3.38;1.48;;;6.70;96.70;;;;;;5121972;27;20035;-76
2022/02/23 03:52:56;;;;;;;3.45;1.70;;;6.80;96.70;;;;;;5118170;27;20035;-76
2022/02/23 03:55:24;;;;;;;2.30;1.55;;;6.80;96.70;;;;;;5126455;27;20118;-77
2022/02/23 03:57:52;;;;;;;2.97;1.40;;;6.70;96.70;;;;;;5115560;27;20051;-77
2022/02/23 04:00:20;;;;;;;5.82;2.50;;;6.70;96.70;;;;;;5122926;27;20039;-76
2022/02/23 04:02:49;;;;;;;4.43;2.10;;;6.80;96.70;;;;;;5103715;28;20527;-76
2022/02/23 04:05:17;;;;;;;2.97;1.92;;;6.80;96.70;;;;;;5127662;27;20070;-76
2022/02/23 04:07:47;;;;;;;3.97;1.85;;;6.80;96.70;;;;;;5119710;27;20074;-76
2022/02/23 04:10:19;;;;;;;6.05;1.60;;;6.80;96.70;;;;;;5121366;27;20380;-76
2022/02/23 04:12:47;;;;;;;3.88;1.73;;;6.70;96.70;;;;;;5117589;27;20035;-76
2022/02/23 04:15:15;;;;;;;3.53;1.70;;;6.70;96.70;;;;;;5122727;27;20045;-76
2022/02/23 04:17:46;;;;;;;3.28;1.60;;;6.60;96.70;;;;;;5116624;27;20043;-76
2022/02/23 04:20:14;;;;;;;4.30;1.92;;;6.60;96.70;;;;;;5102806;27;20466;-76
2022/02/23 04:22:44;;;;;;;2.42;1.40;;;6.70;96.70;;;;;;5118233;27;20085;-76
2022/02/23 04:25:14;;;;;;;3.53;1.45;;;6.40;96.70;;;;;;5121592;27;20075;-76
2022/02/23 04:27:42;;;;;;;2.85;1.58;;;6.20;96.70;;;;;;5124990;27;20125;-76
2022/02/23 04:30:10;;;;;;;2.88;1.60;;;6.40;96.70;;;;;;5120290;27;20137;-76
2022/02/23 04:32:38;;;;;;;2.92;1.65;;;6.40;96.70;;;;;;5124002;27;20064;-76
2022/02/23 04:35:07;;;;;;;2.65;1.52;;;6.30;96.70;;;;;;5128492;27;20579;-76
2022/02/23 04:37:36;;;;;;;2.30;1.45;;;6.30;96.70;;;;;;5120909;27;20047;-77
2022/02/23 04:40:05;;;;;;;4.40;1.35;;;6.30;96.70;;;;;;5120745;27;20129;-76
2022/02/23 04:42:35;;;;;;;3.35;1.63;;;6.30;96.70;;;;;;5113229;27;20126;-76
2022/02/23 04:45:03;;;;;;;3.88;1.50;;;6.40;96.70;;;;;;5100871;27;20040;-76
2022/02/23 04:47:32;;;;;;;3.20;1.63;;;6.40;96.70;;;;;;5122792;27;20132;-76
2022/02/23 04:50:03;;;;;;;3.10;1.75;;;6.30;96.70;;;;;;5124726;27;20074;-76
2022/02/23 04:52:31;;;;;;;3.47;1.65;;;6.40;96.70;;;;;;5123494;27;20047;-76
2022/02/23 04:55:00;;;;;;;5.50;1.20;;;6.40;96.70;;;;;;5123386;27;20046;-76
2022/02/23 04:57:28;;;;;;;3.33;1.40;;;6.50;96.70;;;;;;5120191;27;20063;-76
2022/02/23 04:59:58;;;;;;;3.33;1.40;;;6.40;96.70;;;;;;5126773;27;20039;-76
2022/02/23 05:02:27;;;;;;;2.28;1.30;;;6.30;96.70;;;;;;5124304;27;20054;-76
2022/02/23 05:04:58;;;;;;;1.88;1.40;;;6.30;96.70;;;;;;5120274;27;20063;-77
2022/02/23 05:07:26;;;;;;;4.03;1.75;;;6.30;96.70;;;;;;5121053;27;20043;-76
2022/02/23 05:09:57;;;;;;;3.90;1.83;;;6.30;96.70;;;;;;5119010;27;20038;-77
2022/02/23 05:12:26;;;;;;;3.72;1.48;;;6.30;96.70;;;;;;5118439;27;20554;-76
2022/02/23 05:14:54;;;;;;;4.93;1.65;;;6.40;96.70;;;;;;5122000;27;20070;-76
2022/02/23 05:17:24;;;;;;;3.40;2.00;;;6.30;96.70;;;;;;5143277;27;20083;-77
2022/02/23 05:19:52;;;;;;;2.63;1.73;;;6.20;96.70;;;;;;5123613;27;20031;-76
2022/02/23 05:22:20;;;;;;;5.38;1.95;;;6.30;96.70;;;;;;5105075;27;20311;-77
2022/02/23 05:24:48;;;;;;;3.05;1.63;;;6.30;96.70;;;;;;5120715;27;20031;-76
2022/02/23 05:27:16;;;;;;;4.40;2.03;;;6.20;96.70;;;;;;5119874;27;20050;-77
2022/02/23 05:29:44;;;;;;;3.67;1.77;;;6.10;96.70;;;;;;5121225;27;20514;-77
2022/02/23 05:32:12;;;;;;;2.45;1.42;;;6.10;96.70;;;;;;5121291;27;20039;-76
2022/02/23 05:35:05;;;;;;;5.18;1.80;;;6.10;96.70;;;;;;5156716;27;20165;-79
2022/02/23 05:37:34;;;;;;;4.72;1.58;;;6.00;96.70;;;;;;5129303;27;20130;-79
2022/02/23 05:40:02;;;;;;;2.42;1.50;;;5.90;96.70;;;;;;5130437;27;20039;-79
2022/02/23 05:42:30;;;;;;;5.60;1.65;;;5.80;96.70;;;;;;5150181;27;20049;-79
2022/02/23 05:44:59;;;;;;;3.28;1.60;;;5.70;96.70;;;;;;5130831;27;20035;-79
2022/02/23 05:47:27;;;;;;;4.35;1.20;;;5.80;96.70;;;;;;5122505;27;20039;-79
2022/02/23 05:49:55;;;;;;;1.95;1.30;;;5.70;96.70;;;;;;5136393;27;20546;-79
2022/02/23 05:52:25;;;;;;;3.78;1.60;;;5.60;96.70;;;;;;5128361;27;20040;-79
2022/02/23 05:54:53;;;;;;;2.97;1.30;;;5.70;96.70;;;;;;5135243;27;20050;-79
2022/02/23 05:57:21;;;;;;;4.60;1.42;;;5.70;96.70;;;;;;5129331;27;20115;-79
2022/02/23 05:59:50;;;;;;;5.60;1.58;;;5.70;96.70;;;;;;5134089;27;20039;-79
2022/02/23 06:02:18;;;;;;;1.92;1.33;;;5.70;96.70;;;;;;5133823;27;20188;-79
2022/02/23 06:04:46;;;;;;;8.02;1.88;;;5.70;96.70;;;;;;5127215;27;20046;-79
2022/02/23 06:07:16;;;;;;;4.65;1.88;;;5.70;96.70;;;;;;5136635;27;20034;-79
2022/02/23 06:09:45;;;;;;;6.07;2.50;;;5.60;96.70;;;;;;5125942;27;20468;-78
2022/02/23 06:12:16;;;;;;;3.85;2.25;;;5.70;96.70;;;;;;5132310;27;20146;-80
2022/02/23 06:14:44;;;;;;;4.45;2.35;;;5.70;96.70;;;;;;5133893;27;20508;-79
2022/02/23 06:17:14;;;;;;;5.43;2.47;;;5.70;96.70;;;;;;5138308;27;20050;-78
2022/02/23 06:19:42;;;;;;;8.27;2.70;;;5.70;96.70;;;;;;5138325;27;20117;-78
2022/02/23 06:22:11;;;;;;;5.68;2.47;;;5.70;96.70;;;;;;5120626;27;20531;-78
2022/02/23 06:24:39;;;;;;;3.90;2.15;;;5.70;96.70;;;;;;5130448;27;20045;-79
2022/02/23 06:27:09;;;;;;;4.75;2.67;;;5.60;96.70;;;;;;5130831;27;20138;-79
2022/02/23 06:29:38;;;;;;;8.02;2.80;;;5.50;96.70;;;;;;5119520;27;20517;-79
2022/02/23 06:32:08;;;;;;;4.30;2.25;;;5.70;96.70;;;;;;5137514;27;20066;-79
2022/02/23 06:34:37;;;;;;;6.50;2.35;;;5.70;96.70;;;;;;5128397;27;20051;-79
2022/02/23 06:37:06;;;;;;;7.40;2.90;;;5.70;96.70;;;;;;5118574;27;20051;-79
2022/02/23 06:39:40;;;;;;;6.85;3.55;;;5.60;96.70;;;;;;5127131;27;20129;-79
2022/02/23 06:42:11;;;;;;;12.60;4.22;;;5.60;96.70;;;;;;5114056;27;20047;-78
2022/02/23 06:44:39;;;;;;;9.70;4.28;;;5.60;96.70;;;;;;5133064;27;20039;-79
2022/02/23 06:47:07;;;;;;;10.50;4.40;;;5.60;96.70;;;;;;5115340;27;20040;-79
2022/02/23 06:49:39;;;;;;;12.27;5.00;;;5.70;96.70;;;;;;5114243;27;20457;-78
2022/02/23 06:52:09;;;;;;;9.88;5.22;;;5.70;96.70;;;;;;5121656;27;20077;-80
2022/02/23 06:54:38;;;;;;;11.90;4.75;;;5.80;96.70;;;;;;5127713;27;20043;-80
2022/02/23 06:57:07;;;;;;;12.48;4.57;;;5.80;96.70;;;;;;5115151;27;20503;-80
2022/02/23 06:59:39;;;;;;;10.52;4.50;;;5.80;96.70;;;;;;5124307;27;20040;-79
2022/02/23 07:02:07;;;;;;;11.13;4.35;;;5.70;96.70;;;;;;5120584;27;20035;-78
2022/02/23 07:04:35;;;;;;;7.75;3.63;;;5.80;96.70;;;;;;5118934;27;20046;-79
2022/02/23 07:07:04;;;;;;;8.15;3.58;;;5.90;96.70;;;;;;5106571;27;20182;-79
2022/02/23 07:09:33;;;;;;;9.23;4.28;;;5.90;96.70;;;;;;5124810;27;20031;-80
2022/02/23 07:12:04;;;;;;;5.15;2.70;;;6.00;96.70;;;;;;5124966;27;20046;-80
2022/02/23 07:14:33;;;;;;;5.80;2.50;;;6.10;96.70;;;;;;5102901;27;20096;-79
2022/02/23 07:17:03;;;;;;;4.80;2.60;;;6.10;96.70;;;;;;5122094;27;20178;-79
2022/02/23 07:19:36;;;;;;;6.88;3.45;;;6.10;96.70;;;;;;5119927;27;20039;-79
2022/02/23 07:22:05;;;;;;;10.93;4.13;;;6.10;96.70;;;;;;5126572;27;20066;-78
2022/02/23 07:24:37;;;;;;;10.18;3.75;;;6.30;96.70;;;;;;5118644;27;20047;-78
2022/02/23 07:27:10;;;;;;;10.60;3.88;;;6.30;96.70;;;;;;5116476;27;20050;-79
2022/02/23 07:29:39;;;;;;;5.55;3.08;;;6.40;96.70;;;;;;5115125;27;20044;-78
2022/02/23 07:32:09;;;;;;;9.35;2.60;;;6.40;96.70;;;;;;5122606;27;20038;-78
2022/02/23 07:34:40;;;;;;;5.88;2.65;;;6.50;96.70;;;;;;5109909;27;20047;-78
2022/02/23 07:37:08;;;;;;;7.68;2.85;;;6.50;96.70;;;;;;5120526;27;20345;-79
2022/02/23 07:39:37;;;;;;;7.90;2.85;;;6.50;96.70;;;;;;5119133;27;20045;-78
2022/02/23 07:42:07;;;;;;;3.85;2.10;;;6.50;96.70;;;;;;5095001;27;20124;-78
2022/02/23 07:44:55;;;;;;;5.22;2.58;;;6.60;96.70;;;;;;5115196;27;20039;-78
2022/02/23 07:47:25;;;;;;;4.75;2.72;;;6.70;96.70;;;;;;5101424;27;20113;-78
2022/02/23 07:49:53;;;;;;;6.80;3.08;;;6.70;96.70;;;;;;5117117;27;20060;-78
2022/02/23 07:52:21;;;;;;;5.13;3.55;;;6.70;96.70;;;;;;5124305;27;20063;-78
2022/02/23 07:54:50;;;;;;;8.85;4.03;;;6.60;96.70;;;;;;5102526;27;20047;-78
2022/02/23 07:57:18;;;;;;;7.65;3.72;;;6.70;96.70;;;;;;5101259;27;20406;-78
2022/02/23 07:59:46;;;;;;;8.80;4.35;;;6.90;96.70;;;;;;5116569;27;20563;-78
2022/02/23 08:02:17;;;;;;;6.80;3.60;;;7.00;96.70;;;;;;5110718;27;20036;-78
2022/02/23 08:04:51;;;;;;;8.00;3.90;;;7.00;96.70;;;;;;5118039;27;20040;-78
2022/02/23 08:07:21;;;;;;;6.55;3.28;;;7.10;96.70;;;;;;5121515;27;20497;-77
2022/02/23 08:09:50;;;;;;;10.82;3.50;;;7.10;96.70;;;;;;5128814;27;20066;-77
2022/02/23 08:12:18;;;;;;;8.18;3.35;;;7.20;96.70;;;;;;5108777;27;20038;-76
2022/02/23 08:14:48;;;;;;;6.63;3.70;;;7.30;96.70;;;;;;5115971;27;20050;-77
2022/02/23 08:20:24;;;;;;;18.08;10.65;;;7.50;96.70;;;;;;5109981;27;20040;-80
2022/02/23 08:22:54;;;;;;;13.40;7.95;;;7.60;96.70;;;;;;5098907;27;20079;-80
2022/02/23 08:25:23;;;;;;;12.82;7.03;;;7.60;96.70;;;;;;5124829;27;20299;-80
2022/02/23 08:27:51;;;;;;;9.73;6.55;;;7.70;96.70;;;;;;5121458;27;20039;-80
2022/02/23 08:30:20;;;;;;;11.02;6.03;;;7.90;96.70;;;;;;5111667;27;20088;-79
2022/02/23 08:32:48;;;;;;;12.15;6.43;;;8.00;96.70;;;;;;5119867;27;20141;-78
2022/02/23 08:35:38;;;;;;;10.80;6.43;;;8.10;96.70;;;;;;5105773;27;20051;-79
2022/02/23 08:38:11;;;;;;;11.13;6.80;;;8.20;96.70;;;;;;5098378;27;20051;-79
2022/02/23 08:40:40;;;;;;;9.68;5.20;;;8.30;96.70;;;;;;5116057;27;20385;-79
2022/02/23 08:43:09;;;;;;;8.82;4.72;;;8.30;96.70;;;;;;5106062;27;20032;-78
2022/02/23 08:45:37;;;;;;;6.00;3.78;;;8.30;96.70;;;;;;5110593;27;20042;-77
2022/02/23 08:48:08;;;;;;;6.32;3.55;;;8.40;96.70;;;;;;5117656;27;20697;-80
2022/02/23 08:50:38;;;;;;;6.50;3.72;;;8.40;96.70;;;;;;5118778;27;20043;-78
2022/02/23 08:53:07;;;;;;;5.47;3.53;;;8.50;96.70;;;;;;5117140;27;20124;-78
2022/02/23 08:55:35;;;;;;;7.28;3.97;;;8.60;96.70;;;;;;5116178;27;20043;-77
2022/02/23 08:58:03;;;;;;;7.63;3.38;;;8.80;96.70;;;;;;5117782;27;20039;-77
2022/02/23 09:00:32;;;;;;;7.05;4.13;;;8.80;96.70;;;;;;5116402;27;20036;-78
2022/02/23 09:03:01;;;;;;;6.90;3.47;;;9.00;96.70;;;;;;5127822;27;20043;-77
2022/02/23 09:05:29;;;;;;;6.13;3.28;;;9.10;96.70;;;;;;5102051;27;20042;-77
2022/02/23 09:07:59;;;;;;;5.88;3.33;;;9.20;96.70;;;;;;5118130;27;20122;-76
2022/02/23 09:10:27;;;;;;;3.78;2.83;;;9.30;96.70;;;;;;5118262;27;20050;-77
2022/02/23 09:12:55;;;;;;;5.72;2.90;;;9.40;96.70;;;;;;5123591;27;20046;-77
2022/02/23 09:15:25;;;;;;;5.05;2.80;;;9.50;96.70;;;;;;5111298;27;20116;-78
2022/02/23 09:17:53;;;;;;;4.88;2.92;;;9.60;96.70;;;;;;5117673;27;20051;-78
2022/02/23 09:20:22;;;;;;;7.15;3.47;;;9.70;96.70;;;;;;5107544;27;20035;-77
2022/02/23 09:22:52;;;;;;;6.15;3.20;;;9.70;96.70;;;;;;5112144;27;20193;-77
2022/02/23 09:25:22;;;;;;;5.72;2.85;;;9.80;96.70;;;;;;5119764;27;20062;-77
2022/02/23 09:27:51;;;;;;;5.18;3.30;;;9.90;96.70;;;;;;5111577;27;20757;-78
2022/02/23 09:30:19;;;;;;;6.45;3.42;;;10.00;96.70;;;;;;5121954;27;20050;-78
2022/02/23 09:32:49;;;;;;;5.05;2.92;;;10.30;96.70;;;;;;5114234;27;20054;-78
2022/02/23 09:35:19;;;;;;;9.02;3.15;;;10.50;96.70;;;;;;5097615;28;20119;-77
2022/02/23 09:37:47;;;;;;;5.55;2.75;;;10.60;96.70;;;;;;5116846;27;20039;-79
2022/02/23 09:40:16;;;;;;;7.68;3.15;;;10.60;96.70;;;;;;5117445;27;20043;-79
2022/02/23 09:42:46;;;;;;;3.45;2.65;;;10.70;96.70;;;;;;5101825;28;20450;-79
2022/02/23 09:45:14;;;;;;;4.45;2.35;;;11.00;96.70;;;;;;5113330;27;20373;-78
2022/02/23 09:47:43;;;;;;;5.82;2.53;;;11.10;96.70;;;;;;5101938;28;20388;-78
2022/02/23 09:50:20;;;;;;;3.40;2.05;;;11.10;96.70;;;;;;5110728;27;20046;-79
2022/02/23 09:52:48;;;;;;;;;;;11.20;96.70;;;;;;5112144;27;20038;-79
2022/02/23 09:55:17;;;;;;;3.72;2.15;;;11.20;96.70;;;;;;5110551;27;20380;-79
2022/02/23 09:57:47;;;;;;;5.35;2.30;;;11.30;96.70;;;;;;5106824;27;20035;-79
2022/02/23 10:00:16;;;;;;;3.58;2.10;;;11.50;96.70;;;;;;5115157;27;20051;-79
2022/02/23 10:02:45;;;;;;;4.05;2.50;;;11.60;96.70;;;;;;5119392;27;21053;-78
2022/02/23 10:05:16;;;;;;;2.85;2.00;;;11.70;96.70;;;;;;5119907;27;20573;-79
2022/02/23 10:07:44;;;;;;;7.40;4.90;;;11.80;96.70;;;;;;5099722;28;20496;-79
2022/02/23 10:10:29;;;;;;;32.25;20.17;;;12.00;96.70;;;;;;5118531;27;20066;-79
2022/02/23 10:13:03;;;;;;;32.65;21.05;;;12.10;96.70;;;;;;5116669;27;20074;-79
2022/02/23 10:15:31;;;;;;;19.80;13.65;;;12.30;96.70;;;;;;5118592;27;20049;-79
2022/02/23 10:18:07;;;;;;;16.17;10.82;;;12.30;96.70;;;;;;5108111;27;21156;-79
2022/02/23 10:20:39;;;;;;;15.68;10.32;;;12.30;96.70;;;;;;5114724;27;20313;-81
2022/02/23 10:23:15;;;;;;;17.27;11.27;;;12.30;96.70;;;;;;5116139;27;20078;-78
2022/02/23 10:25:49;;;;;;;17.20;11.32;;;12.30;96.70;;;;;;5116001;27;20108;-78
2022/02/23 10:28:21;;;;;;;10.38;6.60;;;12.40;96.70;;;;;;5115805;27;20124;-78
2022/02/23 10:30:51;;;;;;;6.90;3.35;;;12.50;96.70;;;;;;5114574;27;20140;-79
2022/02/23 10:33:21;;;;;;;5.88;3.15;;;12.60;96.70;;;;;;5121695;27;20135;-78
2022/02/23 10:36:13;;;;;;;3.28;2.08;;;12.70;96.70;;;;;;5115461;27;20510;-78
2022/02/23 10:38:43;;;;;;;6.53;3.17;;;12.90;96.70;;;;;;5116693;27;20158;-78
2022/02/23 10:41:24;;;;;;;5.95;3.50;;;13.00;96.70;;;;;;5114641;27;20096;-78
2022/02/23 10:43:54;;;;;;;5.93;3.70;;;13.20;96.70;;;;;;5129184;27;20563;-78
2022/02/23 10:46:23;;;;;;;5.03;3.20;;;13.30;96.70;;;;;;5120956;27;20031;-78
2022/02/23 10:48:55;;;;;;;5.88;3.45;;;13.30;96.70;;;;;;5117314;27;20065;-78
2022/02/23 10:51:25;;;;;;;8.38;4.13;;;13.40;96.70;;;;;;5110832;27;20491;-78
2022/02/23 10:54:01;;;;;;;6.55;3.45;;;13.50;96.70;;;;;;5114075;27;20031;-78
2022/02/23 10:56:31;;;;;;;5.63;3.25;;;13.60;96.70;;;;;;5113118;27;20426;-78
2022/02/23 10:59:03;;;;;;;7.22;4.28;;;13.80;96.70;;;;;;5117268;27;20043;-78
2022/02/23 11:01:31;;;;;;;7.70;4.32;;;13.80;96.70;;;;;;5116716;27;20071;-78
2022/02/23 11:04:00;;;;;;;7.53;4.07;;;13.90;96.70;;;;;;5117936;27;20040;-78
2022/02/23 11:06:28;;;;;;;5.88;3.42;;;14.00;96.70;;;;;;5114735;27;20067;-78
2022/02/23 11:08:57;;;;;;;5.72;3.83;;;14.00;96.70;;;;;;5118569;27;20104;-79
2022/02/23 11:11:27;;;;;;;8.18;4.65;;;14.10;96.70;;;;;;5116994;27;20318;-78
2022/02/23 11:13:58;;;;;;;7.32;3.92;;;14.10;96.70;;;;;;5117510;27;20070;-78
2022/02/23 11:16:33;;;;;;;6.25;3.80;;;14.20;96.70;;;;;;5116627;27;20079;-78
2022/02/23 11:19:06;;;;;;;6.07;3.03;;;14.30;96.70;;;;;;5102373;27;20086;-79
2022/02/23 11:21:37;;;;;;;5.50;2.63;;;14.40;96.70;;;;;;5114684;27;20040;-78
2022/02/23 11:24:07;;;;;;;4.43;2.20;;;14.30;96.70;;;;;;5115197;27;20047;-77
2022/02/23 11:26:38;;;;;;;2.92;1.60;;;14.40;96.70;;;;;;5102678;27;20046;-79
2022/02/23 11:29:16;;;;;;;3.40;1.25;;;14.50;96.70;;;;;;5123470;27;20132;-78
2022/02/23 11:31:50;;;;;;;3.25;1.70;;;14.60;96.70;;;;;;5097517;27;20067;-79
2022/02/23 11:34:21;;;;;;;6.57;1.40;;;14.80;96.70;;;;;;5113311;27;20052;-79
2022/02/23 11:36:52;;;;;;;3.67;1.50;;;14.90;96.70;;;;;;5117539;27;20071;-79
2022/02/23 11:39:24;;;;;;;5.38;1.75;;;15.00;96.70;;;;;;5111957;27;20043;-79
2022/02/23 11:41:54;;;;;;;2.22;1.25;;;15.10;96.70;;;;;;5119042;27;20518;-78
2022/02/23 11:44:26;;;;;;;5.28;2.25;;;15.10;96.70;;;;;;5113429;27;20039;-78
2022/02/23 11:47:11;;;;;;;3.67;2.00;;;15.10;96.70;;;;;;5105200;27;20409;-78
2022/02/23 11:49:50;;;;;;;5.35;2.33;;;15.20;96.70;;;;;;5115266;27;20403;-78
2022/02/23 11:52:20;;;;;;;3.55;1.55;;;15.30;96.70;;;;;;5112646;27;20126;-78
2022/02/23 11:54:59;;;;;;;5.65;2.00;;;15.30;96.70;;;;;;5116287;27;20118;-78
2022/02/23 11:57:48;;;;;;;4.13;1.77;;;15.30;96.70;;;;;;5117100;27;20066;-78
2022/02/23 12:00:19;;;;;;;3.83;1.58;;;15.60;96.70;;;;;;5115996;27;20042;-78
2022/02/23 12:03:02;;;;;;;4.30;1.67;;;15.80;96.70;;;;;;5116173;27;20040;-80
2022/02/23 12:05:36;;;;;;;3.28;1.88;;;15.90;96.70;;;;;;5113360;27;20050;-80
2022/02/23 12:08:06;;;;;;;4.20;2.13;;;16.00;96.70;;;;;;5114241;27;20476;-79
2022/02/23 12:10:34;;;;;;;3.58;1.70;;;16.10;96.70;;;;;;5124635;27;20035;-80
2022/02/23 12:13:03;;;;;;;4.20;2.10;;;16.10;96.70;;;;;;5117281;27;20036;-80
2022/02/23 12:15:38;;;;;;;4.13;1.73;;;16.10;96.70;;;;;;5118495;27;20075;-81
2022/02/23 12:18:15;;;;;;;3.38;1.35;;;16.10;96.70;;;;;;5116748;27;20050;-79
2022/02/23 12:20:51;;;;;;;5.15;1.30;;;16.10;96.70;;;;;;5118155;27;20043;-79
2022/02/23 12:23:37;;;;;;;7.57;2.20;;;16.20;96.70;;;;;;5114856;27;20104;-79
2022/02/23 12:26:23;;;;;;;3.72;1.45;;;16.40;96.70;;;;;;5118046;27;20133;-79
2022/02/23 12:28:54;;;;;;;3.85;1.83;;;16.60;96.70;;;;;;5115675;27;20050;-78
2022/02/23 12:31:30;;;;;;;4.05;1.38;;;16.70;96.70;;;;;;5097167;27;20126;-79
2022/02/23 12:34:04;;;;;;;3.83;1.50;;;16.90;96.70;;;;;;5115377;27;20059;-78
2022/02/23 12:36:54;;;;;;;6.10;2.03;;;17.00;96.70;;;;;;5124669;27;20043;-79
2022/02/23 12:39:24;;;;;;;4.97;1.98;;;17.20;96.70;;;;;;5101525;27;20057;-79
2022/02/23 12:41:56;;;;;;;5.22;1.98;;;17.20;96.70;;;;;;5112002;27;20142;-79
2022/02/23 12:44:27;;;;;;;3.63;1.73;;;17.30;96.70;;;;;;5109736;27;20043;-79
2022/02/23 12:46:57;;;;;;;4.38;1.48;;;17.40;96.70;;;;;;5119953;27;20043;-79
2022/02/23 12:49:31;;;;;;;4.78;1.58;;;17.50;96.70;;;;;;5113925;27;20389;-79
2022/02/23 12:52:03;;;;;;;4.65;1.80;;;17.60;96.70;;;;;;5114162;27;20660;-79
2022/02/23 12:54:32;;;;;;;4.57;1.90;;;17.70;96.70;;;;;;5118071;27;20066;-78
2022/02/23 12:57:05;;;;;;;3.55;1.90;;;17.70;96.60;;;;;;5109284;27;20039;-78
2022/02/23 12:59:35;;;;;;;3.22;1.60;;;17.80;96.50;;;;;;5115698;27;20066;-79
2022/02/23 13:02:08;;;;;;;2.30;1.20;;;17.80;95.90;;;;;;5111681;27;20046;-79
2022/02/23 13:04:41;;;;;;;4.50;1.80;;;17.90;95.80;;;;;;5094781;27;20039;-79
2022/02/23 13:07:12;;;;;;;4.80;1.55;;;18.00;95.40;;;;;;5113475;27;20092;-79
2022/02/23 13:09:43;;;;;;;4.95;2.03;;;18.10;95.40;;;;;;5117442;27;20130;-79
2022/02/23 13:12:14;;;;;;;4.18;2.20;;;18.20;95.80;;;;;;5092753;27;20134;-78